Главная страница
METAR-TAF:

METAR-TAF

Аэропорты :

Керманшах, Иран

широта: 34-16N, долгота: 047-07E, высота над уровнем моря: 1320 м

Текущие метеонаблюдения

Эта сводка был подготовлена 16 минут назад, в 00:00 UTC
Ветер 4 Узел от восточно-юго-восточный
Температура 11°C
Влажность 50%
Давление 1021 hPa
Видимость 10 км и более
Нет облачности ниже 1500 м, и нет кучево-дождевой облачности

METAR: OICC 190000Z 12004KT CAVOK 11/01 Q1020 A3014

Время: 04:46 (00:16 UTC)

Прогноз

Эта сводка был подготовлена 4 часа и 16 минут назад, в 20:00 UTC
Прогноз действительный с 18-го 21 UTC до 19-го 06 UTC
Ветер 10 Узел от западно-северо-западный
Видимость: 8000 м
небольшая облачность на высоте 4000 фута

TAF: OICC 182000Z 1821/1906 29010KT 8000 FEW040

Метеонаблюдения и прогнозы для более 4000 аэропортов (сводки METAR и TAF).

Имеющиеся станции представлены на карте желтыми и красными точками.

Чтобы увидеть название станции, наведите на нее мышь.

Затем щелкните, чтобы увидеть метеонаблюдения и метеопрогнозы.

Управление картой: чтобы увеличить масштаб, щелкните зеленые кнопки с черным крестиком; чтобы уменьшить масштаб, щелкните зеленую кнопку с тире; для просмотра соседних карт щелкайте зеленые стрелки.


METAR-TAF: